sensor_id;sensor_type;location;lat;lon;timestamp;P1;durP1;ratioP1;P2;durP2;ratioP2
20161;SDS011;51382;53.180;15.414;2024-03-29T00:04:00;40.40;;;7.10;;
20161;SDS011;51382;53.180;15.414;2024-03-29T00:19:11;51.10;;;8.00;;
20161;SDS011;51382;53.180;15.414;2024-03-29T00:34:22;47.80;;;7.50;;
20161;SDS011;51382;53.180;15.414;2024-03-29T01:05:28;40.50;;;6.10;;
20161;SDS011;51382;53.180;15.414;2024-03-29T01:20:39;39.30;;;5.90;;
20161;SDS011;51382;53.180;15.414;2024-03-29T01:35:50;39.20;;;6.50;;
20161;SDS011;51382;53.180;15.414;2024-03-29T01:51:02;37.20;;;6.10;;
20161;SDS011;51382;53.180;15.414;2024-03-29T02:06:13;58.50;;;9.20;;
20161;SDS011;51382;53.180;15.414;2024-03-29T02:21:25;52.90;;;6.80;;
20161;SDS011;51382;53.180;15.414;2024-03-29T02:36:36;46.40;;;7.00;;
20161;SDS011;51382;53.180;15.414;2024-03-29T02:51:47;45.00;;;7.80;;
20161;SDS011;51382;53.180;15.414;2024-03-29T03:07:01;42.70;;;8.20;;
20161;SDS011;51382;53.180;15.414;2024-03-29T03:22:36;62.20;;;16.00;;
20161;SDS011;51382;53.180;15.414;2024-03-29T03:37:47;59.50;;;10.80;;
20161;SDS011;51382;53.180;15.414;2024-03-29T03:52:58;45.90;;;7.30;;
20161;SDS011;51382;53.180;15.414;2024-03-29T04:08:09;27.00;;;6.30;;
20161;SDS011;51382;53.180;15.414;2024-03-29T04:23:20;35.40;;;5.30;;
20161;SDS011;51382;53.180;15.414;2024-03-29T04:38:31;37.30;;;5.90;;
20161;SDS011;51382;53.180;15.414;2024-03-29T04:53:42;21.80;;;4.10;;
20161;SDS011;51382;53.180;15.414;2024-03-29T05:08:53;29.30;;;5.90;;
20161;SDS011;51382;53.180;15.414;2024-03-29T05:24:04;40.20;;;9.60;;
20161;SDS011;51382;53.180;15.414;2024-03-29T05:39:15;38.10;;;8.10;;
20161;SDS011;51382;53.180;15.414;2024-03-29T05:54:28;33.60;;;6.50;;
20161;SDS011;51382;53.180;15.414;2024-03-29T06:09:38;35.50;;;5.60;;
20161;SDS011;51382;53.180;15.414;2024-03-29T06:24:49;73.90;;;10.30;;
20161;SDS011;51382;53.180;15.414;2024-03-29T06:40:01;30.80;;;4.70;;
20161;SDS011;51382;53.180;15.414;2024-03-29T07:12:02;31.10;;;4.20;;
20161;SDS011;51382;53.180;15.414;2024-03-29T07:27:14;25.80;;;3.90;;
20161;SDS011;51382;53.180;15.414;2024-03-29T07:42:27;29.50;;;6.00;;
20161;SDS011;51382;53.180;15.414;2024-03-29T07:57:38;45.10;;;10.70;;
20161;SDS011;51382;53.180;15.414;2024-03-29T08:12:48;45.50;;;7.70;;
20161;SDS011;51382;53.180;15.414;2024-03-29T08:27:59;43.30;;;8.20;;
20161;SDS011;51382;53.180;15.414;2024-03-29T08:43:10;38.30;;;7.30;;
20161;SDS011;51382;53.180;15.414;2024-03-29T08:58:21;49.60;;;11.30;;
20161;SDS011;51382;53.180;15.414;2024-03-29T09:13:33;38.30;;;7.50;;
20161;SDS011;51382;53.180;15.414;2024-03-29T09:28:44;47.60;;;8.40;;
20161;SDS011;51382;53.180;15.414;2024-03-29T09:43:55;47.60;;;8.00;;
20161;SDS011;51382;53.180;15.414;2024-03-29T09:59:09;32.60;;;6.40;;
20161;SDS011;51382;53.180;15.414;2024-03-29T10:14:20;30.50;;;5.60;;
20161;SDS011;51382;53.180;15.414;2024-03-29T10:29:32;29.30;;;5.00;;
20161;SDS011;51382;53.180;15.414;2024-03-29T10:44:46;26.80;;;4.90;;
20161;SDS011;51382;53.180;15.414;2024-03-29T11:00:03;24.10;;;4.10;;
20161;SDS011;51382;53.180;15.414;2024-03-29T11:15:28;25.80;;;4.00;;
20161;SDS011;51382;53.180;15.414;2024-03-29T11:30:46;31.50;;;5.00;;
20161;SDS011;51382;53.180;15.414;2024-03-29T11:45:59;35.70;;;7.90;;
20161;SDS011;51382;53.180;15.414;2024-03-29T12:01:14;39.50;;;9.10;;
20161;SDS011;51382;53.180;15.414;2024-03-29T12:16:25;32.40;;;7.20;;
20161;SDS011;51382;53.180;15.414;2024-03-29T12:31:36;36.50;;;5.80;;
20161;SDS011;51382;53.180;15.414;2024-03-29T12:46:48;59.10;;;11.20;;
20161;SDS011;51382;53.180;15.414;2024-03-29T13:01:59;37.90;;;6.70;;
20161;SDS011;51382;53.180;15.414;2024-03-29T13:17:10;32.30;;;5.20;;
20161;SDS011;51382;53.180;15.414;2024-03-29T13:32:21;73.00;;;18.30;;
20161;SDS011;51382;53.180;15.414;2024-03-29T13:47:33;32.90;;;8.10;;
20161;SDS011;51382;53.180;15.414;2024-03-29T14:02:44;35.20;;;5.90;;
20161;SDS011;51382;53.180;15.414;2024-03-29T14:17:54;33.00;;;5.10;;
20161;SDS011;51382;53.180;15.414;2024-03-29T14:33:06;48.50;;;6.80;;
20161;SDS011;51382;53.180;15.414;2024-03-29T14:48:17;46.60;;;8.40;;
20161;SDS011;51382;53.180;15.414;2024-03-29T15:03:28;39.50;;;7.30;;
20161;SDS011;51382;53.180;15.414;2024-03-29T15:18:39;50.20;;;9.30;;
20161;SDS011;51382;53.180;15.414;2024-03-29T15:33:51;72.80;;;12.90;;
20161;SDS011;51382;53.180;15.414;2024-03-29T15:49:03;30.00;;;6.00;;
20161;SDS011;51382;53.180;15.414;2024-03-29T16:04:14;48.60;;;11.00;;
20161;SDS011;51382;53.180;15.414;2024-03-29T16:19:28;53.30;;;11.20;;
20161;SDS011;51382;53.180;15.414;2024-03-29T16:34:38;82.20;;;19.30;;
20161;SDS011;51382;53.180;15.414;2024-03-29T16:49:49;72.30;;;26.70;;
20161;SDS011;51382;53.180;15.414;2024-03-29T17:05:02;76.80;;;18.10;;
20161;SDS011;51382;53.180;15.414;2024-03-29T17:20:13;64.90;;;17.90;;
20161;SDS011;51382;53.180;15.414;2024-03-29T17:35:26;79.20;;;22.20;;
20161;SDS011;51382;53.180;15.414;2024-03-29T17:50:36;72.90;;;16.70;;
20161;SDS011;51382;53.180;15.414;2024-03-29T18:05:47;41.80;;;9.20;;
20161;SDS011;51382;53.180;15.414;2024-03-29T18:20:58;63.90;;;16.60;;
20161;SDS011;51382;53.180;15.414;2024-03-29T18:36:09;80.80;;;19.60;;
20161;SDS011;51382;53.180;15.414;2024-03-29T18:51:15;54.90;;;11.30;;
20161;SDS011;51382;53.180;15.414;2024-03-29T19:06:26;58.70;;;11.50;;
20161;SDS011;51382;53.180;15.414;2024-03-29T19:21:40;51.40;;;12.50;;
20161;SDS011;51382;53.180;15.414;2024-03-29T19:36:56;71.20;;;13.90;;
20161;SDS011;51382;53.180;15.414;2024-03-29T19:52:09;61.00;;;14.80;;
20161;SDS011;51382;53.180;15.414;2024-03-29T20:07:21;61.40;;;17.10;;
20161;SDS011;51382;53.180;15.414;2024-03-29T20:22:32;39.40;;;7.30;;
20161;SDS011;51382;53.180;15.414;2024-03-29T20:37:43;64.70;;;12.60;;
20161;SDS011;51382;53.180;15.414;2024-03-29T20:53:27;58.80;;;8.80;;
20161;SDS011;51382;53.180;15.414;2024-03-29T21:08:50;169.80;;;25.80;;
20161;SDS011;51382;53.180;15.414;2024-03-29T21:24:02;43.40;;;8.60;;
20161;SDS011;51382;53.180;15.414;2024-03-29T21:39:14;71.70;;;9.40;;
20161;SDS011;51382;53.180;15.414;2024-03-29T21:54:25;56.40;;;9.80;;
20161;SDS011;51382;53.180;15.414;2024-03-29T22:09:39;104.80;;;21.60;;
20161;SDS011;51382;53.180;15.414;2024-03-29T22:24:49;80.90;;;21.30;;
20161;SDS011;51382;53.180;15.414;2024-03-29T22:40:00;106.80;;;33.20;;
20161;SDS011;51382;53.180;15.414;2024-03-29T22:55:08;94.80;;;30.50;;
20161;SDS011;51382;53.180;15.414;2024-03-29T23:10:18;77.00;;;26.40;;
20161;SDS011;51382;53.180;15.414;2024-03-29T23:25:29;72.80;;;19.00;;
20161;SDS011;51382;53.180;15.414;2024-03-29T23:40:40;63.60;;;18.70;;
20161;SDS011;51382;53.180;15.414;2024-03-29T23:55:54;53.40;;;16.10;;
